Terminal Aerodrome Forecast
Issued by NWS Omaha/Valley, NE

Home | Current Version | Previous Version | Text Only | Print | Product List | Glossary On
Versions: 1 2 3 4 5 6 7 8 9 10 11 12 13 14 15 16 17 18 19 20 21 22 23 24 25 26 27 28 29 30 31 32 33 34 35 36 37 38
000
FTUS43 KOAX 281120
TAFLNK
TAF
KLNK 281120Z 2812/2912 18005KT P6SM -RA SCT050 OVC110
      TEMPO 2814/2818 5SM -TSRA BKN050CB
     FM281800 17014G23KT P6SM SCT040 BKN100
      TEMPO 2818/2822 5SM -RA BKN050
     FM282300 17014KT P6SM SCT040 BKN100=

USA.gov is the U.S. government's official web portal to all federal, state and local government web resources and services.